Time;durP1;ratioP1;P1;durP2;ratioP2;P2;SDS_P1;SDS_P2;PMS_P1;PMS_P2;Temp;Humidity;BMP_temperature;BMP_pressure;BME280_temperature;BME280_humidity;BME280_pressure;Samples;Min_cycle;Max_cycle;Signal;HPM_P1;HPM_P2
2022/01/07 00:02:08;;;;;;;15.77;5.07;;;;;;;2.67;100.00;101339.59;5020929;28;20385;-74
2022/01/07 00:04:35;;;;;;;14.95;5.60;;;;;;;2.67;100.00;101343.88;5028397;28;20366;-74
2022/01/07 00:07:05;;;;;;;15.43;5.07;;;;;;;2.65;100.00;101333.41;5025441;28;20120;-74
2022/01/07 00:09:30;;;;;;;10.57;5.05;;;;;;;2.69;100.00;101326.69;5028540;28;20841;-74
2022/01/07 00:11:56;;;;;;;17.67;5.20;;;;;;;2.67;100.00;101318.81;5021492;28;20120;-75
2022/01/07 00:14:21;;;;;;;14.48;4.68;;;;;;;2.67;100.00;101324.03;5032560;28;20112;-74
2022/01/07 00:16:48;;;;;;;8.02;4.15;;;;;;;2.69;100.00;101318.91;5027164;28;20030;-74
2022/01/07 00:19:14;;;;;;;11.52;4.82;;;;;;;2.70;100.00;101331.97;5030754;28;20457;-74
2022/01/07 00:21:40;;;;;;;8.07;3.97;;;;;;;2.70;100.00;101325.91;5028588;28;20390;-74
2022/01/07 00:24:05;;;;;;;8.35;4.20;;;;;;;2.72;100.00;101325.97;5034935;28;20033;-74
2022/01/07 00:26:31;;;;;;;10.48;5.18;;;;;;;2.72;100.00;101316.47;5022069;28;20087;-75
2022/01/07 00:28:56;;;;;;;11.60;4.55;;;;;;;2.73;100.00;101312.16;5033420;28;20108;-75
2022/01/07 00:31:24;;;;;;;11.52;4.32;;;;;;;2.73;100.00;101306.94;5022794;28;20028;-75
2022/01/07 00:33:49;;;;;;;11.70;4.75;;;;;;;2.75;100.00;101310.56;5015989;28;20026;-75
2022/01/07 00:36:14;;;;;;;13.93;4.70;;;;;;;2.69;100.00;101296.41;5025149;28;20454;-75
2022/01/07 00:38:40;;;;;;;7.72;4.35;;;;;;;2.72;100.00;101294.78;5032031;28;20073;-75
2022/01/07 00:41:05;;;;;;;13.73;4.55;;;;;;;2.73;100.00;101293.97;5032783;28;20049;-75
2022/01/07 00:43:31;;;;;;;15.45;5.75;;;;;;;2.73;100.00;101280.97;5029300;28;20392;-74
2022/01/07 00:45:56;;;;;;;17.25;4.85;;;;;;;2.76;100.00;101287.25;5027588;28;20034;-75
2022/01/07 00:48:21;;;;;;;14.90;5.82;;;;;;;2.80;100.00;101278.81;5024093;28;20330;-74
2022/01/07 00:50:47;;;;;;;8.65;4.00;;;;;;;2.84;100.00;101279.88;5032037;28;20374;-75
2022/01/07 00:53:12;;;;;;;16.13;4.60;;;;;;;2.86;100.00;101273.03;5025240;28;20037;-75
2022/01/07 00:55:38;;;;;;;12.35;4.78;;;;;;;2.88;100.00;101284.44;5027041;28;20037;-74
2022/01/07 00:58:04;;;;;;;14.50;5.15;;;;;;;2.90;100.00;101277.59;5019495;28;20178;-75
2022/01/07 01:00:30;;;;;;;11.38;4.53;;;;;;;2.91;100.00;101271.59;5020051;28;20044;-74
2022/01/07 01:02:56;;;;;;;13.45;5.10;;;;;;;2.94;100.00;101258.75;5028608;28;20034;-74
2022/01/07 01:05:22;;;;;;;7.78;5.00;;;;;;;2.96;100.00;101262.34;5029864;28;20036;-74
2022/01/07 01:07:49;;;;;;;11.30;4.35;;;;;;;2.96;100.00;101270.16;5031246;28;20462;-73
2022/01/07 01:10:17;;;;;;;12.43;4.95;;;;;;;2.96;100.00;101251.94;5029322;28;20462;-74
2022/01/07 01:12:44;;;;;;;15.68;6.72;;;;;;;2.97;100.00;101274.53;5019656;28;20377;-75
2022/01/07 01:15:11;;;;;;;17.67;5.97;;;;;;;2.97;100.00;101255.44;5029545;28;20025;-74
2022/01/07 01:17:37;;;;;;;14.57;5.57;;;;;;;2.99;100.00;101262.50;5021729;28;20100;-74
2022/01/07 01:20:06;;;;;;;16.20;5.97;;;;;;;2.96;100.00;101241.56;5019982;28;20576;-74
2022/01/07 01:22:32;;;;;;;12.32;5.75;;;;;;;3.00;100.00;101245.22;5034473;28;20144;-74
2022/01/07 01:24:57;;;;;;;13.95;5.35;;;;;;;3.01;100.00;101237.50;5032388;28;20105;-74
2022/01/07 01:27:22;;;;;;;16.42;6.30;;;;;;;3.08;100.00;101237.81;5027405;28;20028;-74
2022/01/07 01:29:48;;;;;;;25.45;7.18;;;;;;;3.08;100.00;101240.41;5025406;28;20064;-74
2022/01/07 01:32:16;;;;;;;14.13;5.93;;;;;;;3.11;100.00;101233.69;5034182;28;20032;-74
2022/01/07 01:34:41;;;;;;;13.98;6.38;;;;;;;3.08;100.00;101235.22;5027851;28;20060;-75
2022/01/07 01:37:06;;;;;;;12.93;6.50;;;;;;;3.09;100.00;101231.81;5028723;28;20494;-75
2022/01/07 01:39:32;;;;;;;16.90;6.80;;;;;;;3.10;100.00;101228.41;5031250;28;20022;-75
2022/01/07 01:41:57;;;;;;;15.93;6.78;;;;;;;3.12;100.00;101224.16;5016920;28;20044;-75
2022/01/07 01:44:23;;;;;;;15.93;7.38;;;;;;;3.10;100.00;101225.81;5032710;28;20025;-74
2022/01/07 01:46:48;;;;;;;14.75;6.82;;;;;;;3.14;100.00;101222.53;5031818;28;20120;-73
2022/01/07 01:49:14;;;;;;;20.67;7.05;;;;;;;3.13;100.00;101206.03;5027134;28;20026;-73
2022/01/07 01:51:39;;;;;;;14.57;7.57;;;;;;;3.10;100.00;101221.47;5028606;28;20168;-73
2022/01/07 01:54:05;;;;;;;13.75;7.50;;;;;;;3.10;100.00;101199.81;5022874;28;20474;-74
2022/01/07 01:56:32;;;;;;;13.15;6.95;;;;;;;3.12;100.00;101208.56;5014287;28;20026;-73
2022/01/07 01:58:57;;;;;;;12.77;7.28;;;;;;;3.14;100.00;101201.75;5031430;28;20495;-74
2022/01/07 02:01:23;;;;;;;19.95;7.28;;;;;;;3.15;100.00;101191.41;5020258;28;20108;-74
2022/01/07 02:03:48;;;;;;;14.48;7.53;;;;;;;3.18;100.00;101182.88;5033215;28;20389;-74
2022/01/07 02:06:15;;;;;;;20.10;8.27;;;;;;;3.20;100.00;101194.25;5029222;28;20081;-74
2022/01/07 02:08:41;;;;;;;17.80;7.57;;;;;;;3.24;100.00;101192.72;5021241;28;20026;-73
2022/01/07 02:11:06;;;;;;;16.80;7.47;;;;;;;3.24;100.00;101185.78;5021680;28;20029;-74
2022/01/07 02:13:32;;;;;;;15.93;8.15;;;;;;;3.25;100.00;101174.56;5033644;28;20086;-73
2022/01/07 02:15:57;;;;;;;14.60;6.72;;;;;;;3.28;100.00;101171.25;5026679;28;20018;-74
2022/01/07 02:18:23;;;;;;;14.05;7.80;;;;;;;3.27;100.00;101170.38;5033334;28;20104;-73
2022/01/07 02:20:48;;;;;;;13.85;6.97;;;;;;;3.32;100.00;101178.41;5015789;28;20053;-74
2022/01/07 02:23:15;;;;;;;14.00;7.57;;;;;;;3.31;100.00;101174.91;5012389;28;20018;-74
2022/01/07 02:25:41;;;;;;;12.05;6.68;;;;;;;3.28;100.00;101184.25;5018721;28;20040;-73
2022/01/07 02:28:08;;;;;;;15.38;7.15;;;;;;;3.25;100.00;101190.19;5014955;28;20104;-74
2022/01/07 02:30:33;;;;;;;10.60;7.13;;;;;;;3.23;100.00;101186.63;5028322;28;20025;-74
2022/01/07 02:32:59;;;;;;;13.32;6.63;;;;;;;3.21;100.00;101170.03;5030719;28;20032;-74
2022/01/07 02:35:28;;;;;;;14.00;7.25;;;;;;;3.20;100.00;101170.84;5027969;28;20067;-74
2022/01/07 02:37:53;;;;;;;14.70;7.68;;;;;;;3.18;100.00;101172.50;5023107;28;20036;-74
2022/01/07 02:40:19;;;;;;;12.95;7.43;;;;;;;3.19;100.00;101166.47;5029053;28;20025;-74
2022/01/07 02:42:45;;;;;;;18.65;7.90;;;;;;;3.15;100.00;101172.34;5029464;28;20034;-75
2022/01/07 02:45:11;;;;;;;15.25;7.05;;;;;;;3.15;100.00;101159.34;5024502;28;20022;-73
2022/01/07 02:47:55;;;;;;;13.93;7.90;;;;;;;3.19;100.00;101166.47;5013104;28;20401;-74
2022/01/07 02:50:28;;;;;;;13.93;8.15;;;;;;;3.17;100.00;101142.09;5016802;28;20033;-74
2022/01/07 02:52:54;;;;;;;10.77;7.20;;;;;;;3.16;100.00;101159.41;5017269;28;20037;-74
2022/01/07 02:55:20;;;;;;;13.63;8.13;;;;;;;3.20;100.00;101147.44;5023873;28;20105;-73
2022/01/07 02:57:46;;;;;;;13.27;9.02;;;;;;;3.21;100.00;101144.03;5020295;28;20030;-73
2022/01/07 03:00:12;;;;;;;20.27;9.50;;;;;;;3.22;100.00;101137.13;5029536;28;20515;-74
2022/01/07 03:02:38;;;;;;;24.05;9.77;;;;;;;3.24;100.00;101141.56;5030296;28;20041;-73
2022/01/07 03:05:04;;;;;;;18.02;10.30;;;;;;;3.29;100.00;101139.22;5030967;28;20052;-74
2022/01/07 03:07:29;;;;;;;18.45;10.68;;;;;;;3.35;100.00;101136.91;5024017;28;20037;-75
2022/01/07 03:09:55;;;;;;;20.23;11.98;;;;;;;3.36;100.00;101136.13;5015613;28;20037;-75
2022/01/07 03:12:21;;;;;;;17.75;11.32;;;;;;;3.43;100.00;101132.13;5015315;28;20489;-74
2022/01/07 03:14:48;;;;;;;22.45;12.32;;;;;;;3.41;100.00;101136.38;5023723;28;20121;-74
2022/01/07 03:17:14;;;;;;;18.80;11.30;;;;;;;3.47;100.00;101134.97;5031254;28;20029;-74
2022/01/07 03:19:39;;;;;;;20.05;11.38;;;;;;;3.48;100.00;101128.03;5016407;28;20037;-74
2022/01/07 03:22:04;;;;;;;22.08;12.80;;;;;;;3.47;100.00;101115.84;5012752;28;20560;-74
2022/01/07 03:24:30;;;;;;;17.95;12.05;;;;;;;3.52;100.00;101109.16;5032615;28;20042;-75
2022/01/07 03:26:55;;;;;;;25.42;12.32;;;;;;;3.49;100.00;101111.63;5026509;28;20033;-74
2022/01/07 03:29:27;;;;;;;23.83;11.68;;;;;;;3.52;100.00;101115.25;5027867;28;20462;-75
2022/01/07 03:31:53;;;;;;;20.83;11.63;;;;;;;3.51;100.00;101099.56;5024314;28;20056;-74
2022/01/07 03:34:18;;;;;;;26.30;13.63;;;;;;;3.51;100.00;101113.50;5024586;28;20029;-74
2022/01/07 03:36:43;;;;;;;20.17;11.82;;;;;;;3.52;100.00;101085.75;5031195;28;20056;-73
2022/01/07 03:39:09;;;;;;;17.60;11.85;;;;;;;3.52;100.00;101080.53;5017566;28;20038;-74
2022/01/07 03:41:34;;;;;;;19.10;10.27;;;;;;;3.56;100.00;101081.59;5026444;28;20119;-74
2022/01/07 03:44:00;;;;;;;22.23;12.35;;;;;;;3.56;100.00;101074.66;5032501;28;20037;-75
2022/01/07 03:46:25;;;;;;;16.42;11.30;;;;;;;3.59;100.00;101081.75;5023435;28;20416;-74
2022/01/07 03:48:50;;;;;;;14.52;10.10;;;;;;;3.59;100.00;101077.41;5025808;28;20037;-74
2022/01/07 03:51:16;;;;;;;21.60;11.75;;;;;;;3.62;100.00;101064.56;5023506;28;20030;-74
2022/01/07 03:53:42;;;;;;;18.77;11.95;;;;;;;3.62;100.00;101055.84;5027301;28;20034;-74
2022/01/07 03:56:10;;;;;;;17.05;12.43;;;;;;;3.61;100.00;101044.56;5027470;28;20500;-74
2022/01/07 03:58:35;;;;;;;26.27;12.55;;;;;;;3.62;100.00;101048.97;5018454;28;20109;-74
2022/01/07 04:01:01;;;;;;;20.45;13.20;;;;;;;3.64;100.00;101043.81;5021714;28;20164;-74
2022/01/07 04:03:26;;;;;;;20.98;13.00;;;;;;;3.66;100.00;101043.09;5023892;28;20037;-74
2022/01/07 04:05:54;;;;;;;18.77;12.68;;;;;;;3.67;100.00;101044.84;5027678;28;20044;-74
2022/01/07 04:08:20;;;;;;;22.58;11.90;;;;;;;3.71;100.00;101036.38;5023678;28;20474;-73
2022/01/07 04:10:45;;;;;;;25.40;11.60;;;;;;;3.75;100.00;101042.63;5021951;28;20040;-73
2022/01/07 04:13:10;;;;;;;20.50;12.13;;;;;;;3.77;100.00;101042.69;5032469;28;20040;-74
2022/01/07 04:15:36;;;;;;;15.15;11.35;;;;;;;3.79;100.00;101054.97;5048446;28;20025;-74
2022/01/07 04:18:02;;;;;;;18.30;12.07;;;;;;;3.82;100.00;101054.22;5015509;28;20029;-74
2022/01/07 04:20:31;;;;;;;21.10;11.68;;;;;;;3.86;100.00;101045.72;5025302;28;20375;-74
2022/01/07 04:22:57;;;;;;;21.63;12.23;;;;;;;3.85;100.00;101038.72;5017640;28;20041;-74
2022/01/07 04:25:23;;;;;;;24.50;12.48;;;;;;;3.92;100.00;101039.91;5021437;28;20029;-74
2022/01/07 04:27:53;;;;;;;19.88;11.50;;;;;;;3.93;100.00;101042.56;5029261;28;20066;-75
2022/01/07 04:30:20;;;;;;;16.10;12.05;;;;;;;3.87;100.00;101037.09;5023411;28;20029;-75
2022/01/07 04:32:48;;;;;;;20.92;11.75;;;;;;;3.87;100.00;101039.72;5033831;28;20106;-73
2022/01/07 04:35:15;;;;;;;13.90;10.98;;;;;;;3.87;100.00;101055.31;5027876;28;20686;-74
2022/01/07 04:37:41;;;;;;;16.20;11.38;;;;;;;3.88;100.00;101049.31;5026882;28;20267;-74
2022/01/07 04:40:09;;;;;;;21.38;10.77;;;;;;;3.86;100.00;101040.53;5031788;28;20394;-74
2022/01/07 04:42:34;;;;;;;15.88;9.73;;;;;;;3.95;100.00;101035.75;5016266;28;20052;-73
2022/01/07 04:45:00;;;;;;;15.93;9.85;;;;;;;3.94;100.00;101036.56;5017402;28;20136;-74
2022/01/07 04:47:26;;;;;;;15.02;10.68;;;;;;;3.99;100.00;101027.25;5031289;28;20048;-74
2022/01/07 04:49:53;;;;;;;20.33;11.25;;;;;;;4.04;100.00;101023.16;5023000;28;20371;-74
2022/01/07 04:52:21;;;;;;;23.75;12.10;;;;;;;4.08;100.00;101023.28;5016701;28;20143;-74
2022/01/07 04:54:46;;;;;;;18.60;11.40;;;;;;;4.09;100.00;101030.28;5019257;28;20030;-74
2022/01/07 04:57:11;;;;;;;20.52;13.10;;;;;;;4.10;100.00;101035.56;5028402;28;20030;-75
2022/01/07 04:59:37;;;;;;;24.45;12.98;;;;;;;4.09;100.00;101028.56;5032769;28;20431;-74
2022/01/07 05:02:02;;;;;;;22.55;12.43;;;;;;;4.18;100.00;101028.09;5024598;28;20033;-74
2022/01/07 05:04:28;;;;;;;25.35;12.63;;;;;;;4.20;100.00;101016.91;5020010;28;20070;-74
2022/01/07 05:06:53;;;;;;;20.02;12.93;;;;;;;4.19;100.00;101017.75;5033187;28;20021;-74
2022/01/07 05:09:19;;;;;;;18.60;12.70;;;;;;;4.20;100.00;101026.44;5027620;28;20041;-74
2022/01/07 05:11:52;;;;;;;21.52;12.20;;;;;;;4.22;100.00;101017.88;5030636;28;20037;-74
2022/01/07 05:14:18;;;;;;;18.60;12.48;;;;;;;4.27;100.00;101025.88;5030776;28;20871;-74
2022/01/07 05:16:44;;;;;;;25.50;13.13;;;;;;;4.32;100.00;101026.13;5024031;28;20030;-74
2022/01/07 05:19:10;;;;;;;17.52;11.52;;;;;;;4.33;100.00;101039.22;5015750;28;20513;-73
2022/01/07 05:21:36;;;;;;;17.60;12.07;;;;;;;4.35;100.00;101032.38;5019411;28;20429;-74
2022/01/07 05:24:03;;;;;;;18.75;12.60;;;;;;;4.40;100.00;101035.16;5016998;28;20037;-73
2022/01/07 05:26:28;;;;;;;24.92;12.77;;;;;;;4.41;100.00;101034.34;5031111;28;20049;-73
2022/01/07 05:28:54;;;;;;;19.60;11.50;;;;;;;4.41;100.00;101036.03;5021111;28;20493;-73
2022/01/07 05:31:22;;;;;;;17.73;12.23;;;;;;;4.42;100.00;101032.63;5028330;28;20029;-74
2022/01/07 05:33:49;;;;;;;19.08;12.00;;;;;;;4.39;100.00;101030.78;5029986;28;20099;-74
2022/01/07 05:36:14;;;;;;;22.55;11.40;;;;;;;4.40;100.00;101035.16;5023693;28;20152;-74
2022/01/07 05:38:40;;;;;;;26.13;13.93;;;;;;;4.43;100.00;101039.63;5018180;28;20143;-74
2022/01/07 05:41:05;;;;;;;23.73;11.35;;;;;;;4.44;100.00;101029.25;5017345;28;20034;-74
2022/01/07 05:43:30;;;;;;;19.52;10.27;;;;;;;4.39;100.00;101033.38;5030801;28;20043;-74
2022/01/07 05:45:57;;;;;;;25.67;12.13;;;;;;;4.36;100.00;101028.03;5033026;28;20036;-74
2022/01/07 05:48:22;;;;;;;15.43;11.45;;;;;;;4.35;100.00;101032.38;5023124;28;20113;-74
2022/01/07 05:50:47;;;;;;;20.85;11.88;;;;;;;4.34;100.00;101020.16;5013448;28;20561;-74
2022/01/07 05:53:13;;;;;;;23.67;11.40;;;;;;;4.35;100.00;101027.16;5024740;28;20021;-75
2022/01/07 05:55:38;;;;;;;21.83;11.05;;;;;;;4.37;100.00;101038.53;5031023;28;20484;-75
2022/01/07 05:58:04;;;;;;;22.17;11.75;;;;;;;4.34;100.00;101037.47;5014790;28;20029;-73
2022/01/07 06:00:29;;;;;;;23.05;11.80;;;;;;;4.38;100.00;101031.59;5022491;28;20029;-74
2022/01/07 06:02:55;;;;;;;26.45;12.95;;;;;;;4.38;100.00;101037.72;5031438;28;20116;-73
2022/01/07 06:05:20;;;;;;;22.60;13.98;;;;;;;4.35;100.00;101041.88;5026737;28;20456;-74
2022/01/07 06:07:46;;;;;;;26.05;13.55;;;;;;;4.43;100.00;101042.22;5024590;28;20356;-74
2022/01/07 06:10:11;;;;;;;23.13;13.55;;;;;;;4.41;100.00;101036.03;5018423;28;20489;-74
2022/01/07 06:12:37;;;;;;;27.55;13.90;;;;;;;4.41;100.00;101041.25;5031384;28;20459;-74
2022/01/07 06:15:02;;;;;;;24.95;12.63;;;;;;;4.44;100.00;101044.03;5030202;28;20474;-74
2022/01/07 06:17:28;;;;;;;28.45;12.95;;;;;;;4.47;100.00;101044.16;5023126;28;20026;-73
2022/01/07 06:19:53;;;;;;;23.13;12.57;;;;;;;4.45;100.00;101049.28;5022277;28;20470;-73
2022/01/07 06:22:18;;;;;;;22.90;12.35;;;;;;;4.51;100.00;101043.47;5017356;28;20530;-74
2022/01/07 06:24:44;;;;;;;23.85;12.05;;;;;;;4.52;100.00;101040.03;5014013;28;20041;-74
2022/01/07 06:27:10;;;;;;;27.15;12.70;;;;;;;4.55;100.00;101040.16;5015630;28;20032;-73
2022/01/07 06:29:35;;;;;;;27.70;12.57;;;;;;;4.53;100.00;101026.16;5030417;28;20033;-73
2022/01/07 06:32:01;;;;;;;21.48;12.30;;;;;;;4.54;100.00;101022.75;5017501;28;20083;-74
2022/01/07 06:34:26;;;;;;;18.45;12.90;;;;;;;4.54;100.00;101022.75;5030195;28;20033;-73
2022/01/07 06:36:52;;;;;;;21.23;11.32;;;;;;;4.52;100.00;101024.41;5025288;28;20107;-73
2022/01/07 06:39:22;;;;;;;16.92;11.35;;;;;;;4.48;100.00;101028.56;5028826;28;20075;-73
2022/01/07 06:41:49;;;;;;;23.60;11.43;;;;;;;4.49;100.00;101040.78;5026083;28;20053;-73
2022/01/07 06:44:14;;;;;;;21.67;11.00;;;;;;;4.47;100.00;101046.75;5024791;28;20034;-73
2022/01/07 06:46:40;;;;;;;17.17;10.85;;;;;;;4.52;100.00;101042.66;5017300;28;20393;-74
2022/01/07 06:49:05;;;;;;;18.05;10.90;;;;;;;4.47;100.00;101039.81;5026726;28;20044;-74
2022/01/07 06:51:31;;;;;;;18.17;10.93;;;;;;;4.45;100.00;101048.38;5015747;28;20037;-73
2022/01/07 06:53:58;;;;;;;24.38;11.63;;;;;;;4.48;100.00;101045.94;5015607;28;20029;-74
2022/01/07 06:56:23;;;;;;;27.83;12.25;;;;;;;4.49;100.00;101037.28;5022063;28;20045;-74
2022/01/07 06:58:49;;;;;;;24.55;13.55;;;;;;;4.43;100.00;101039.63;5014204;28;20386;-75
2022/01/07 07:01:14;;;;;;;26.42;13.05;;;;;;;4.45;100.00;101038.88;5017253;28;20611;-74
2022/01/07 07:03:40;;;;;;;25.00;12.80;;;;;;;4.45;100.00;101028.44;5018172;28;20367;-75
2022/01/07 07:06:06;;;;;;;20.75;12.60;;;;;;;4.39;100.00;101029.06;5027593;28;20021;-74
2022/01/07 07:08:31;;;;;;;21.55;11.30;;;;;;;4.38;100.00;101032.50;5024649;28;20514;-73
2022/01/07 07:10:57;;;;;;;20.40;11.55;;;;;;;4.33;100.00;101023.56;5025438;28;20052;-74
2022/01/07 07:13:22;;;;;;;22.45;10.90;;;;;;;4.33;100.00;101018.38;5031132;28;20028;-74
2022/01/07 07:15:47;;;;;;;20.48;10.40;;;;;;;4.28;100.00;101017.25;5028436;28;20039;-73
2022/01/07 07:18:14;;;;;;;23.80;9.82;;;;;;;4.29;100.00;101026.88;5031631;28;20845;-73
2022/01/07 07:20:39;;;;;;;19.08;10.43;;;;;;;4.26;100.00;101026.75;5031525;28;20017;-73
2022/01/07 07:23:05;;;;;;;25.38;9.93;;;;;;;4.25;100.00;101026.69;5028746;28;20378;-74
2022/01/07 07:25:30;;;;;;;16.55;9.63;;;;;;;4.25;100.00;101027.56;5032965;28;20064;-75
2022/01/07 07:27:56;;;;;;;15.02;8.05;;;;;;;4.25;100.00;101024.94;5032474;28;20494;-74
2022/01/07 07:30:21;;;;;;;23.05;8.95;;;;;;;4.26;100.00;101023.22;5018787;28;20064;-73
2022/01/07 07:32:48;;;;;;;20.25;8.80;;;;;;;4.25;100.00;101024.94;5028246;28;20415;-73
2022/01/07 07:37:49;;;;;;;13.95;7.47;;;;;;;4.27;100.00;101017.19;5029463;28;20096;-73
2022/01/07 07:40:15;;;;;;;18.48;8.68;;;;;;;4.23;100.00;101016.16;5028521;28;20377;-73
2022/01/07 07:42:41;;;;;;;16.52;8.18;;;;;;;4.22;100.00;101022.22;5026296;28;20084;-74
2022/01/07 07:45:07;;;;;;;17.85;8.48;;;;;;;4.20;100.00;101021.25;5031100;28;20029;-74
2022/01/07 07:47:36;;;;;;;19.95;7.57;;;;;;;4.19;100.00;101027.25;5022467;28;20026;-74
2022/01/07 07:50:03;;;;;;;20.73;7.13;;;;;;;4.19;100.00;101024.66;5026943;28;20037;-74
2022/01/07 07:52:28;;;;;;;12.48;6.75;;;;;;;4.17;100.00;101032.41;5032422;28;20052;-74
2022/01/07 07:54:53;;;;;;;20.88;6.40;;;;;;;4.21;100.00;101031.72;5022246;28;20017;-74
2022/01/07 07:57:20;;;;;;;16.85;6.13;;;;;;;4.23;100.00;101031.78;5020312;28;20029;-73
2022/01/07 07:59:45;;;;;;;19.48;5.97;;;;;;;4.26;100.00;101039.75;5033487;28;20080;-72
2022/01/07 08:02:11;;;;;;;14.43;5.63;;;;;;;4.30;100.00;101038.16;5017034;28;20158;-73
2022/01/07 08:04:38;;;;;;;17.95;5.28;;;;;;;4.28;100.00;101034.63;5018777;28;20393;-74
2022/01/07 08:07:03;;;;;;;14.18;5.35;;;;;;;4.26;100.00;101039.75;5032010;28;20037;-71
2022/01/07 08:09:33;;;;;;;25.60;6.13;;;;;;;4.25;100.00;101043.19;5029791;28;20375;-70
2022/01/07 08:12:05;;;;;;;14.57;4.40;;;;;;;4.24;100.00;101043.13;5025603;28;20032;-71
2022/01/07 08:17:15;;;;;;;19.85;5.40;;;;;;;4.24;100.00;101037.91;5016431;28;20079;-69
2022/01/07 08:19:40;;;;;;;14.13;5.28;;;;;;;4.21;100.00;101038.66;5016462;28;20503;-70
2022/01/07 08:22:06;;;;;;;17.83;5.60;;;;;;;4.27;100.00;101044.13;5017954;28;20034;-71
2022/01/07 08:24:31;;;;;;;18.27;5.05;;;;;;;4.30;100.00;101038.16;5045293;28;20040;-72
2022/01/07 08:26:57;;;;;;;12.85;4.80;;;;;;;4.32;100.00;101040.03;5025902;28;20061;-71
2022/01/07 08:29:25;;;;;;;22.17;5.60;;;;;;;4.33;100.00;101033.13;5034800;28;20045;-71
2022/01/07 08:37:00;;;;;;;10.52;5.00;;;;;;;4.34;100.00;101038.41;5026665;28;20077;-71
2022/01/07 08:39:26;;;;;;;16.33;6.53;;;;;;;4.30;100.00;101028.66;5026257;28;20432;-71
2022/01/07 08:41:52;;;;;;;12.70;5.45;;;;;;;4.33;100.00;101028.78;5034714;28;20029;-72
2022/01/07 08:44:19;;;;;;;14.50;5.15;;;;;;;4.35;100.00;101024.56;5025089;28;20037;-70
2022/01/07 08:46:45;;;;;;;14.98;5.97;;;;;;;4.38;100.00;101027.28;5032977;28;20442;-71
2022/01/07 08:49:10;;;;;;;11.55;5.22;;;;;;;4.39;100.00;101033.38;5040574;28;20135;-71
2022/01/07 08:51:35;;;;;;;16.38;5.32;;;;;;;4.43;100.00;101024.00;5032879;28;20048;-72
2022/01/07 08:54:01;;;;;;;25.35;5.82;;;;;;;4.50;100.00;101032.16;5042283;28;20052;-70
2022/01/07 08:56:26;;;;;;;14.55;4.85;;;;;;;4.66;100.00;101019.78;5037649;28;20041;-71
2022/01/07 08:58:56;;;;;;;15.73;5.50;;;;;;;4.76;100.00;101018.47;5024720;28;20029;-71
2022/01/07 09:01:23;;;;;;;12.20;5.40;;;;;;;4.77;100.00;101025.47;5030754;28;20055;-71
2022/01/07 09:03:49;;;;;;;11.25;4.82;;;;;;;4.79;100.00;101018.59;5035087;28;20029;-71
2022/01/07 09:06:14;;;;;;;17.15;5.47;;;;;;;4.82;100.00;101014.41;5030126;28;20091;-71
2022/01/07 09:08:40;;;;;;;16.35;5.38;;;;;;;4.86;100.00;101015.44;5037441;28;20044;-71
2022/01/07 09:11:05;;;;;;;9.95;4.72;;;;;;;4.81;100.00;101016.94;5034240;28;20096;-71
2022/01/07 09:13:30;;;;;;;8.73;4.80;;;;;;;4.87;100.00;101011.97;5014477;28;20034;-71
2022/01/07 09:15:56;;;;;;;17.58;5.75;;;;;;;4.94;100.00;101011.44;5029273;28;20057;-71
2022/01/07 09:18:21;;;;;;;16.85;5.85;;;;;;;5.06;100.00;101013.66;5034052;28;20017;-71
2022/01/07 09:20:48;;;;;;;18.17;6.47;;;;;;;5.16;100.00;101012.31;5032069;28;20049;-71
2022/01/07 09:23:14;;;;;;;17.77;6.28;;;;;;;5.24;100.00;101023.97;5047324;28;20029;-71
2022/01/07 09:25:39;;;;;;;14.20;4.80;;;;;;;5.35;100.00;101027.88;5021116;28;20496;-72
2022/01/07 09:28:06;;;;;;;17.42;4.75;;;;;;;5.53;100.00;101014.69;5028166;28;20496;-71
2022/01/07 09:30:33;;;;;;;17.67;5.55;;;;;;;5.59;100.00;101024.50;5046185;28;20072;-71
2022/01/07 09:32:59;;;;;;;10.70;4.90;;;;;;;5.60;100.00;101013.22;5040741;28;20017;-71
2022/01/07 09:35:25;;;;;;;19.27;4.63;;;;;;;5.54;100.00;101015.59;5032635;28;20035;-71
2022/01/07 09:37:50;;;;;;;13.90;4.50;;;;;;;5.52;100.00;101014.63;5040094;28;20052;-71
2022/01/07 09:40:17;;;;;;;10.10;4.22;;;;;;;5.45;100.00;101010.00;5048986;28;20025;-71
2022/01/07 09:43:05;;;;;;;11.55;4.50;;;;;;;5.36;100.00;101016.63;5036996;28;20045;-70
2022/01/07 09:45:32;;;;;;;15.65;4.65;;;;;;;5.30;100.00;101021.59;5053537;28;20028;-71
2022/01/07 09:47:58;;;;;;;14.40;4.82;;;;;;;5.49;100.00;101011.91;5039437;28;20027;-70
2022/01/07 09:50:25;;;;;;;16.05;5.03;;;;;;;5.59;100.00;101011.44;5049296;28;20036;-71
2022/01/07 09:52:51;;;;;;;20.73;4.38;;;;;;;5.46;100.00;101019.63;5030902;28;20036;-71
2022/01/07 09:55:17;;;;;;;15.25;4.13;;;;;;;5.24;100.00;101013.53;5023831;28;20480;-71
2022/01/07 09:57:42;;;;;;;16.98;4.65;;;;;;;5.17;100.00;101021.94;5043623;28;20048;-71
2022/01/07 10:00:09;;;;;;;19.48;4.47;;;;;;;5.13;100.00;101002.66;5034821;28;20037;-71
2022/01/07 10:02:34;;;;;;;14.52;5.25;;;;;;;5.10;100.00;101018.19;5031662;28;20029;-71
2022/01/07 10:05:15;;;;;;;15.55;5.10;;;;;;;5.11;100.00;101019.06;5050022;28;20087;-71
2022/01/07 10:07:41;;;;;;;12.55;4.13;;;;;;;5.03;100.00;101017.03;5027429;28;20023;-72
2022/01/07 10:10:08;;;;;;;15.45;4.35;;;;;;;5.07;100.00;101023.25;5024297;28;20030;-71
2022/01/07 10:12:52;;;;;;;15.15;3.85;;;;;;;5.16;100.00;101020.16;5025736;28;20029;-71
2022/01/07 10:15:23;;;;;;;11.85;4.20;;;;;;;5.19;100.00;101020.28;5033704;28;20028;-71
2022/01/07 10:18:06;;;;;;;13.52;4.15;;;;;;;5.30;100.00;101029.41;5032305;28;20032;-72
2022/01/07 10:20:37;;;;;;;15.65;3.92;;;;;;;5.31;100.00;101028.59;5050304;28;20385;-71
2022/01/07 10:23:13;;;;;;;12.75;3.53;;;;;;;5.12;100.00;101024.34;5034377;28;20017;-71
2022/01/07 10:25:44;;;;;;;12.25;3.50;;;;;;;4.96;100.00;101028.00;5036315;28;20028;-72
2022/01/07 10:28:17;;;;;;;17.98;4.55;;;;;;;4.88;100.00;101030.31;5035186;28;20458;-72
2022/01/07 10:30:49;;;;;;;23.88;5.93;;;;;;;4.82;100.00;101024.81;5049276;28;20021;-71
2022/01/07 10:33:20;;;;;;;22.05;6.75;;;;;;;4.80;100.00;101018.69;5021769;28;20029;-71
2022/01/07 10:35:48;;;;;;;19.42;6.70;;;;;;;4.83;100.00;101026.63;5026754;28;20387;-72
2022/01/07 10:38:19;;;;;;;24.73;6.72;;;;;;;4.88;100.00;101035.53;5030025;28;20041;-72
2022/01/07 10:40:47;;;;;;;12.95;5.75;;;;;;;5.04;100.00;101029.22;5028723;28;20036;-72
2022/01/07 10:43:29;;;;;;;18.23;6.07;;;;;;;5.30;100.00;101018.09;5033350;28;20036;-72
2022/01/07 10:46:00;;;;;;;14.43;5.75;;;;;;;5.35;100.00;101007.00;5023037;28;20030;-72
2022/01/07 10:48:39;;;;;;;17.70;4.97;;;;;;;5.50;100.00;101016.31;5031058;28;20048;-72
2022/01/07 10:51:11;;;;;;;19.95;5.20;;;;;;;5.50;100.00;101006.75;5029695;28;20461;-71
2022/01/07 10:53:38;;;;;;;21.67;5.82;;;;;;;5.47;100.00;101009.22;5036246;28;20041;-71
2022/01/07 10:56:09;;;;;;;20.38;4.43;;;;;;;5.43;100.00;101009.06;5038170;28;20380;-70
2022/01/07 10:58:43;;;;;;;16.58;4.43;;;;;;;5.46;100.00;101006.56;5037539;28;20033;-70
2022/01/07 11:01:25;;;;;;;20.40;4.57;;;;;;;5.43;100.00;100998.63;5032874;28;20041;-70
2022/01/07 11:03:56;;;;;;;17.75;3.47;;;;;;;5.53;100.00;100998.16;5033519;28;20033;-71
2022/01/07 11:06:23;;;;;;;15.15;2.50;;;;;;;5.51;100.00;100992.00;5032410;28;20030;-74
2022/01/07 11:08:50;;;;;;;17.38;2.72;;;;;;;5.49;100.00;100988.41;5029346;28;20087;-72
2022/01/07 11:11:18;;;;;;;7.53;1.40;;;;;;;5.50;97.23;100977.16;5033149;28;20029;-72
2022/01/07 11:13:43;;;;;;;10.85;2.33;;;;;;;5.52;97.56;100988.53;5037833;28;20085;-71
2022/01/07 11:16:08;;;;;;;19.90;2.22;;;;;;;5.53;96.26;100980.75;5026607;28;20025;-71
2022/01/07 11:18:39;;;;;;;19.77;2.28;;;;;;;5.68;93.72;100977.88;5031108;28;20541;-71
2022/01/07 11:21:06;;;;;;;10.43;1.42;;;;;;;5.80;90.99;100987.00;5024038;28;20469;-75
2022/01/07 11:23:33;;;;;;;13.88;1.70;;;;;;;5.87;93.05;100996.84;5030079;28;20124;-73